sensor_id;sensor_type;location;lat;lon;timestamp;P1;durP1;ratioP1;P2;durP2;ratioP2
74689;SDS011;63221;51.860;-2.188;2023-09-19T00:00:20;6.32;;;1.10;;
74689;SDS011;63221;51.860;-2.188;2023-09-19T00:02:52;7.60;;;1.35;;
74689;SDS011;63221;51.860;-2.188;2023-09-19T00:05:18;5.88;;;1.58;;
74689;SDS011;63221;51.860;-2.188;2023-09-19T00:07:44;5.07;;;1.27;;
74689;SDS011;63221;51.860;-2.188;2023-09-19T00:10:10;3.63;;;1.30;;
74689;SDS011;63221;51.860;-2.188;2023-09-19T00:12:35;4.80;;;1.83;;
74689;SDS011;63221;51.860;-2.188;2023-09-19T00:15:00;7.20;;;1.53;;
74689;SDS011;63221;51.860;-2.188;2023-09-19T00:17:30;4.53;;;1.40;;
74689;SDS011;63221;51.860;-2.188;2023-09-19T00:19:57;2.92;;;1.27;;
74689;SDS011;63221;51.860;-2.188;2023-09-19T00:22:22;5.33;;;0.87;;
74689;SDS011;63221;51.860;-2.188;2023-09-19T00:24:48;7.43;;;1.63;;
74689;SDS011;63221;51.860;-2.188;2023-09-19T00:27:14;3.20;;;1.00;;
74689;SDS011;63221;51.860;-2.188;2023-09-19T00:29:39;6.40;;;1.37;;
74689;SDS011;63221;51.860;-2.188;2023-09-19T00:32:06;6.63;;;1.33;;
74689;SDS011;63221;51.860;-2.188;2023-09-19T00:34:32;4.27;;;1.07;;
74689;SDS011;63221;51.860;-2.188;2023-09-19T00:36:59;8.20;;;0.93;;
74689;SDS011;63221;51.860;-2.188;2023-09-19T00:39:24;2.80;;;1.07;;
74689;SDS011;63221;51.860;-2.188;2023-09-19T00:41:50;5.88;;;1.30;;
74689;SDS011;63221;51.860;-2.188;2023-09-19T00:44:16;5.70;;;1.37;;
74689;SDS011;63221;51.860;-2.188;2023-09-19T00:46:42;5.67;;;1.43;;
74689;SDS011;63221;51.860;-2.188;2023-09-19T00:49:08;9.68;;;1.70;;
74689;SDS011;63221;51.860;-2.188;2023-09-19T00:51:34;5.78;;;1.40;;
74689;SDS011;63221;51.860;-2.188;2023-09-19T00:54:01;6.93;;;1.92;;
74689;SDS011;63221;51.860;-2.188;2023-09-19T00:56:27;5.87;;;1.30;;
74689;SDS011;63221;51.860;-2.188;2023-09-19T00:58:53;5.85;;;1.27;;
74689;SDS011;63221;51.860;-2.188;2023-09-19T01:01:18;5.73;;;1.80;;
74689;SDS011;63221;51.860;-2.188;2023-09-19T01:03:44;8.33;;;2.20;;
74689;SDS011;63221;51.860;-2.188;2023-09-19T01:06:10;8.73;;;1.60;;
74689;SDS011;63221;51.860;-2.188;2023-09-19T01:08:35;11.37;;;1.77;;
74689;SDS011;63221;51.860;-2.188;2023-09-19T01:16:19;7.30;;;1.33;;
74689;SDS011;63221;51.860;-2.188;2023-09-19T01:27:40;7.32;;;1.33;;
74689;SDS011;63221;51.860;-2.188;2023-09-19T01:30:17;9.30;;;1.83;;
74689;SDS011;63221;51.860;-2.188;2023-09-19T01:32:47;9.38;;;1.58;;
74689;SDS011;63221;51.860;-2.188;2023-09-19T01:35:17;11.93;;;1.67;;
74689;SDS011;63221;51.860;-2.188;2023-09-19T01:37:43;9.38;;;1.80;;
74689;SDS011;63221;51.860;-2.188;2023-09-19T01:40:10;5.57;;;1.20;;
74689;SDS011;63221;51.860;-2.188;2023-09-19T01:51:14;4.45;;;2.13;;
74689;SDS011;63221;51.860;-2.188;2023-09-19T01:59:23;11.43;;;1.73;;
74689;SDS011;63221;51.860;-2.188;2023-09-19T02:01:52;11.90;;;2.00;;
74689;SDS011;63221;51.860;-2.188;2023-09-19T02:04:18;6.35;;;1.48;;
74689;SDS011;63221;51.860;-2.188;2023-09-19T02:06:43;8.27;;;1.53;;
74689;SDS011;63221;51.860;-2.188;2023-09-19T02:09:12;6.40;;;1.35;;
74689;SDS011;63221;51.860;-2.188;2023-09-19T02:11:39;11.18;;;1.48;;
74689;SDS011;63221;51.860;-2.188;2023-09-19T02:14:04;6.33;;;1.60;;
74689;SDS011;63221;51.860;-2.188;2023-09-19T02:16:33;5.60;;;1.20;;
74689;SDS011;63221;51.860;-2.188;2023-09-19T02:18:59;8.63;;;2.08;;
74689;SDS011;63221;51.860;-2.188;2023-09-19T02:21:25;9.07;;;1.10;;
74689;SDS011;63221;51.860;-2.188;2023-09-19T02:23:52;8.52;;;1.42;;
74689;SDS011;63221;51.860;-2.188;2023-09-19T02:26:17;9.20;;;1.60;;
74689;SDS011;63221;51.860;-2.188;2023-09-19T02:28:45;5.82;;;1.20;;
74689;SDS011;63221;51.860;-2.188;2023-09-19T02:31:11;9.93;;;1.60;;
74689;SDS011;63221;51.860;-2.188;2023-09-19T02:33:36;7.32;;;1.33;;
74689;SDS011;63221;51.860;-2.188;2023-09-19T02:36:02;5.83;;;1.40;;
74689;SDS011;63221;51.860;-2.188;2023-09-19T02:38:29;9.25;;;2.33;;
74689;SDS011;63221;51.860;-2.188;2023-09-19T02:40:54;5.30;;;1.93;;
74689;SDS011;63221;51.860;-2.188;2023-09-19T02:43:20;7.43;;;1.73;;
74689;SDS011;63221;51.860;-2.188;2023-09-19T02:45:47;10.57;;;1.23;;
74689;SDS011;63221;51.860;-2.188;2023-09-19T02:48:14;10.05;;;1.55;;
74689;SDS011;63221;51.860;-2.188;2023-09-19T02:50:40;5.13;;;1.00;;
74689;SDS011;63221;51.860;-2.188;2023-09-19T02:53:07;5.53;;;1.30;;
74689;SDS011;63221;51.860;-2.188;2023-09-19T02:55:32;5.88;;;1.85;;
74689;SDS011;63221;51.860;-2.188;2023-09-19T02:57:58;4.83;;;1.10;;
74689;SDS011;63221;51.860;-2.188;2023-09-19T03:00:23;6.23;;;1.53;;
74689;SDS011;63221;51.860;-2.188;2023-09-19T03:02:53;11.98;;;1.40;;
74689;SDS011;63221;51.860;-2.188;2023-09-19T03:05:19;15.95;;;1.42;;
74689;SDS011;63221;51.860;-2.188;2023-09-19T03:07:46;9.40;;;1.15;;
74689;SDS011;63221;51.860;-2.188;2023-09-19T03:10:15;7.43;;;0.93;;
74689;SDS011;63221;51.860;-2.188;2023-09-19T03:12:41;6.18;;;1.35;;
74689;SDS011;63221;51.860;-2.188;2023-09-19T03:15:07;9.52;;;2.38;;
74689;SDS011;63221;51.860;-2.188;2023-09-19T03:17:33;7.97;;;1.10;;
74689;SDS011;63221;51.860;-2.188;2023-09-19T03:19:59;12.90;;;2.88;;
74689;SDS011;63221;51.860;-2.188;2023-09-19T03:22:26;8.27;;;1.57;;
74689;SDS011;63221;51.860;-2.188;2023-09-19T03:24:52;8.70;;;1.40;;
74689;SDS011;63221;51.860;-2.188;2023-09-19T03:27:18;7.72;;;1.60;;
74689;SDS011;63221;51.860;-2.188;2023-09-19T03:29:43;8.90;;;1.10;;
74689;SDS011;63221;51.860;-2.188;2023-09-19T03:32:09;10.97;;;1.73;;
74689;SDS011;63221;51.860;-2.188;2023-09-19T03:34:35;6.38;;;1.58;;
74689;SDS011;63221;51.860;-2.188;2023-09-19T03:37:03;9.40;;;1.92;;
74689;SDS011;63221;51.860;-2.188;2023-09-19T03:39:29;9.97;;;2.20;;
74689;SDS011;63221;51.860;-2.188;2023-09-19T03:41:54;5.47;;;1.30;;
74689;SDS011;63221;51.860;-2.188;2023-09-19T03:44:19;12.77;;;3.03;;
74689;SDS011;63221;51.860;-2.188;2023-09-19T03:46:45;7.17;;;1.77;;
74689;SDS011;63221;51.860;-2.188;2023-09-19T03:49:10;12.47;;;2.63;;
74689;SDS011;63221;51.860;-2.188;2023-09-19T03:51:35;8.33;;;1.43;;
74689;SDS011;63221;51.860;-2.188;2023-09-19T03:54:02;8.70;;;1.95;;
74689;SDS011;63221;51.860;-2.188;2023-09-19T03:56:29;6.03;;;1.02;;
74689;SDS011;63221;51.860;-2.188;2023-09-19T03:58:54;5.57;;;1.00;;
74689;SDS011;63221;51.860;-2.188;2023-09-19T04:01:20;5.38;;;1.27;;
74689;SDS011;63221;51.860;-2.188;2023-09-19T04:03:45;7.70;;;1.50;;
74689;SDS011;63221;51.860;-2.188;2023-09-19T04:06:15;9.25;;;1.42;;
74689;SDS011;63221;51.860;-2.188;2023-09-19T04:08:41;9.98;;;1.30;;
74689;SDS011;63221;51.860;-2.188;2023-09-19T04:11:07;5.73;;;1.43;;
74689;SDS011;63221;51.860;-2.188;2023-09-19T04:13:32;9.50;;;1.53;;
74689;SDS011;63221;51.860;-2.188;2023-09-19T04:15:58;7.53;;;1.17;;
74689;SDS011;63221;51.860;-2.188;2023-09-19T04:18:23;9.27;;;1.60;;
74689;SDS011;63221;51.860;-2.188;2023-09-19T04:20:49;6.33;;;1.23;;
74689;SDS011;63221;51.860;-2.188;2023-09-19T04:23:15;6.28;;;0.98;;
74689;SDS011;63221;51.860;-2.188;2023-09-19T04:25:40;8.77;;;1.80;;
74689;SDS011;63221;51.860;-2.188;2023-09-19T04:28:06;4.95;;;1.30;;
74689;SDS011;63221;51.860;-2.188;2023-09-19T04:30:31;6.23;;;1.20;;
74689;SDS011;63221;51.860;-2.188;2023-09-19T04:32:57;4.23;;;1.07;;
74689;SDS011;63221;51.860;-2.188;2023-09-19T04:35:22;6.73;;;1.53;;
74689;SDS011;63221;51.860;-2.188;2023-09-19T04:37:47;6.10;;;1.00;;
74689;SDS011;63221;51.860;-2.188;2023-09-19T04:40:13;3.53;;;0.67;;
74689;SDS011;63221;51.860;-2.188;2023-09-19T04:42:43;5.10;;;0.80;;
74689;SDS011;63221;51.860;-2.188;2023-09-19T04:45:09;6.27;;;0.93;;
74689;SDS011;63221;51.860;-2.188;2023-09-19T04:47:35;5.03;;;0.63;;
74689;SDS011;63221;51.860;-2.188;2023-09-19T04:50:05;3.78;;;0.77;;
74689;SDS011;63221;51.860;-2.188;2023-09-19T04:52:31;8.00;;;0.93;;
74689;SDS011;63221;51.860;-2.188;2023-09-19T04:54:57;6.30;;;1.03;;
74689;SDS011;63221;51.860;-2.188;2023-09-19T04:57:22;5.57;;;0.80;;
74689;SDS011;63221;51.860;-2.188;2023-09-19T04:59:48;3.35;;;0.70;;
74689;SDS011;63221;51.860;-2.188;2023-09-19T05:02:14;8.17;;;1.03;;
74689;SDS011;63221;51.860;-2.188;2023-09-19T05:04:39;4.27;;;0.70;;
74689;SDS011;63221;51.860;-2.188;2023-09-19T05:07:04;4.67;;;1.37;;
74689;SDS011;63221;51.860;-2.188;2023-09-19T05:09:30;3.80;;;1.17;;
74689;SDS011;63221;51.860;-2.188;2023-09-19T05:11:55;3.77;;;0.90;;
74689;SDS011;63221;51.860;-2.188;2023-09-19T05:14:21;2.17;;;0.40;;
74689;SDS011;63221;51.860;-2.188;2023-09-19T05:16:47;2.88;;;0.77;;
74689;SDS011;63221;51.860;-2.188;2023-09-19T05:19:13;7.37;;;1.43;;
74689;SDS011;63221;51.860;-2.188;2023-09-19T05:21:38;3.97;;;0.63;;
74689;SDS011;63221;51.860;-2.188;2023-09-19T05:24:04;5.20;;;1.43;;
74689;SDS011;63221;51.860;-2.188;2023-09-19T05:26:31;4.87;;;1.07;;
74689;SDS011;63221;51.860;-2.188;2023-09-19T05:28:57;11.82;;;1.50;;
74689;SDS011;63221;51.860;-2.188;2023-09-19T05:31:22;6.80;;;1.30;;
74689;SDS011;63221;51.860;-2.188;2023-09-19T05:33:49;3.28;;;1.05;;
74689;SDS011;63221;51.860;-2.188;2023-09-19T05:36:16;3.63;;;0.50;;
74689;SDS011;63221;51.860;-2.188;2023-09-19T05:38:42;2.58;;;0.70;;
74689;SDS011;63221;51.860;-2.188;2023-09-19T05:41:09;2.80;;;0.80;;
74689;SDS011;63221;51.860;-2.188;2023-09-19T05:43:38;3.23;;;0.83;;
74689;SDS011;63221;51.860;-2.188;2023-09-19T05:46:05;6.38;;;1.85;;
74689;SDS011;63221;51.860;-2.188;2023-09-19T05:48:33;5.35;;;1.60;;
74689;SDS011;63221;51.860;-2.188;2023-09-19T05:50:58;5.53;;;0.65;;
74689;SDS011;63221;51.860;-2.188;2023-09-19T05:53:25;4.47;;;1.37;;
74689;SDS011;63221;51.860;-2.188;2023-09-19T05:55:51;3.97;;;0.90;;
74689;SDS011;63221;51.860;-2.188;2023-09-19T05:58:18;5.23;;;1.17;;
74689;SDS011;63221;51.860;-2.188;2023-09-19T06:00:45;6.07;;;1.27;;
74689;SDS011;63221;51.860;-2.188;2023-09-19T06:03:12;6.13;;;1.30;;
74689;SDS011;63221;51.860;-2.188;2023-09-19T06:05:39;7.03;;;1.00;;
74689;SDS011;63221;51.860;-2.188;2023-09-19T06:08:05;9.82;;;2.30;;
74689;SDS011;63221;51.860;-2.188;2023-09-19T06:10:32;4.30;;;1.87;;
74689;SDS011;63221;51.860;-2.188;2023-09-19T06:12:59;5.15;;;1.00;;
74689;SDS011;63221;51.860;-2.188;2023-09-19T06:15:25;4.00;;;1.67;;
74689;SDS011;63221;51.860;-2.188;2023-09-19T06:17:54;5.50;;;1.60;;
74689;SDS011;63221;51.860;-2.188;2023-09-19T06:20:21;2.65;;;1.13;;
74689;SDS011;63221;51.860;-2.188;2023-09-19T06:22:48;7.15;;;0.90;;
74689;SDS011;63221;51.860;-2.188;2023-09-19T06:25:14;6.20;;;1.30;;
74689;SDS011;63221;51.860;-2.188;2023-09-19T06:27:44;4.80;;;1.90;;
74689;SDS011;63221;51.860;-2.188;2023-09-19T06:30:11;7.03;;;1.73;;
74689;SDS011;63221;51.860;-2.188;2023-09-19T06:32:36;4.80;;;1.35;;
74689;SDS011;63221;51.860;-2.188;2023-09-19T06:35:02;4.80;;;1.93;;
74689;SDS011;63221;51.860;-2.188;2023-09-19T06:37:28;7.43;;;2.47;;
74689;SDS011;63221;51.860;-2.188;2023-09-19T06:39:54;10.15;;;1.90;;
74689;SDS011;63221;51.860;-2.188;2023-09-19T06:42:19;4.73;;;1.53;;
74689;SDS011;63221;51.860;-2.188;2023-09-19T06:44:45;6.67;;;1.47;;
74689;SDS011;63221;51.860;-2.188;2023-09-19T06:47:10;11.17;;;2.30;;
74689;SDS011;63221;51.860;-2.188;2023-09-19T06:49:36;7.40;;;3.10;;
74689;SDS011;63221;51.860;-2.188;2023-09-19T06:52:01;5.63;;;1.93;;
74689;SDS011;63221;51.860;-2.188;2023-09-19T06:54:27;8.35;;;1.50;;
74689;SDS011;63221;51.860;-2.188;2023-09-19T06:56:56;5.53;;;1.73;;
74689;SDS011;63221;51.860;-2.188;2023-09-19T06:59:23;9.45;;;2.00;;
74689;SDS011;63221;51.860;-2.188;2023-09-19T07:01:49;5.00;;;1.70;;
74689;SDS011;63221;51.860;-2.188;2023-09-19T07:04:15;8.13;;;2.08;;
74689;SDS011;63221;51.860;-2.188;2023-09-19T07:06:41;5.82;;;2.10;;
74689;SDS011;63221;51.860;-2.188;2023-09-19T07:09:07;9.52;;;3.30;;
74689;SDS011;63221;51.860;-2.188;2023-09-19T07:11:33;7.17;;;2.43;;
74689;SDS011;63221;51.860;-2.188;2023-09-19T07:13:59;6.13;;;2.63;;
74689;SDS011;63221;51.860;-2.188;2023-09-19T07:16:24;8.87;;;2.13;;
74689;SDS011;63221;51.860;-2.188;2023-09-19T07:18:54;8.68;;;2.13;;
74689;SDS011;63221;51.860;-2.188;2023-09-19T07:21:23;8.02;;;2.38;;
74689;SDS011;63221;51.860;-2.188;2023-09-19T07:23:49;11.60;;;2.20;;
74689;SDS011;63221;51.860;-2.188;2023-09-19T07:26:15;8.55;;;2.60;;
74689;SDS011;63221;51.860;-2.188;2023-09-19T07:28:41;6.25;;;1.63;;
74689;SDS011;63221;51.860;-2.188;2023-09-19T07:31:06;4.43;;;2.60;;
74689;SDS011;63221;51.860;-2.188;2023-09-19T07:33:35;11.00;;;2.78;;
74689;SDS011;63221;51.860;-2.188;2023-09-19T07:36:01;5.68;;;2.10;;
74689;SDS011;63221;51.860;-2.188;2023-09-19T07:38:26;10.27;;;2.70;;
74689;SDS011;63221;51.860;-2.188;2023-09-19T07:40:52;10.27;;;2.75;;
74689;SDS011;63221;51.860;-2.188;2023-09-19T07:43:17;11.30;;;2.87;;
74689;SDS011;63221;51.860;-2.188;2023-09-19T07:45:43;9.63;;;2.47;;
74689;SDS011;63221;51.860;-2.188;2023-09-19T07:48:08;13.18;;;2.65;;
74689;SDS011;63221;51.860;-2.188;2023-09-19T07:50:39;11.52;;;3.50;;
74689;SDS011;63221;51.860;-2.188;2023-09-19T07:53:05;10.97;;;3.40;;
74689;SDS011;63221;51.860;-2.188;2023-09-19T07:55:31;12.57;;;2.70;;
74689;SDS011;63221;51.860;-2.188;2023-09-19T07:57:58;10.50;;;2.53;;
74689;SDS011;63221;51.860;-2.188;2023-09-19T08:00:24;10.40;;;2.23;;
74689;SDS011;63221;51.860;-2.188;2023-09-19T08:02:49;10.43;;;3.10;;
74689;SDS011;63221;51.860;-2.188;2023-09-19T08:05:17;8.23;;;2.17;;
74689;SDS011;63221;51.860;-2.188;2023-09-19T08:07:43;9.38;;;3.00;;
74689;SDS011;63221;51.860;-2.188;2023-09-19T08:10:17;6.35;;;2.10;;
74689;SDS011;63221;51.860;-2.188;2023-09-19T08:12:44;8.90;;;2.40;;
74689;SDS011;63221;51.860;-2.188;2023-09-19T08:17:40;10.85;;;3.70;;
74689;SDS011;63221;51.860;-2.188;2023-09-19T08:20:06;8.95;;;2.50;;
74689;SDS011;63221;51.860;-2.188;2023-09-19T08:22:32;11.20;;;2.27;;
74689;SDS011;63221;51.860;-2.188;2023-09-19T08:24:57;9.93;;;2.33;;
74689;SDS011;63221;51.860;-2.188;2023-09-19T08:27:23;6.77;;;1.77;;
74689;SDS011;63221;51.860;-2.188;2023-09-19T08:29:52;9.10;;;2.58;;
74689;SDS011;63221;51.860;-2.188;2023-09-19T08:32:17;8.93;;;3.00;;
74689;SDS011;63221;51.860;-2.188;2023-09-19T08:34:48;9.75;;;2.28;;
74689;SDS011;63221;51.860;-2.188;2023-09-19T08:37:14;10.47;;;2.60;;
74689;SDS011;63221;51.860;-2.188;2023-09-19T08:39:39;14.02;;;3.10;;
74689;SDS011;63221;51.860;-2.188;2023-09-19T08:42:04;9.43;;;2.90;;
74689;SDS011;63221;51.860;-2.188;2023-09-19T08:44:30;5.60;;;2.57;;
74689;SDS011;63221;51.860;-2.188;2023-09-19T08:47:08;11.65;;;2.55;;
74689;SDS011;63221;51.860;-2.188;2023-09-19T08:49:41;8.77;;;2.67;;
74689;SDS011;63221;51.860;-2.188;2023-09-19T08:52:18;8.33;;;1.97;;
74689;SDS011;63221;51.860;-2.188;2023-09-19T08:54:46;12.10;;;2.63;;
74689;SDS011;63221;51.860;-2.188;2023-09-19T08:57:12;12.20;;;3.55;;
74689;SDS011;63221;51.860;-2.188;2023-09-19T08:59:46;9.68;;;2.65;;
74689;SDS011;63221;51.860;-2.188;2023-09-19T09:02:12;7.55;;;2.03;;
74689;SDS011;63221;51.860;-2.188;2023-09-19T09:04:43;6.43;;;1.73;;
74689;SDS011;63221;51.860;-2.188;2023-09-19T09:07:10;8.40;;;2.47;;
74689;SDS011;63221;51.860;-2.188;2023-09-19T09:09:36;12.32;;;4.07;;
74689;SDS011;63221;51.860;-2.188;2023-09-19T09:12:02;8.80;;;3.40;;
74689;SDS011;63221;51.860;-2.188;2023-09-19T09:14:28;6.10;;;1.90;;
74689;SDS011;63221;51.860;-2.188;2023-09-19T09:16:55;6.05;;;1.40;;
74689;SDS011;63221;51.860;-2.188;2023-09-19T09:19:23;8.20;;;3.08;;
74689;SDS011;63221;51.860;-2.188;2023-09-19T09:21:50;8.57;;;2.27;;
74689;SDS011;63221;51.860;-2.188;2023-09-19T09:24:29;8.60;;;2.17;;
74689;SDS011;63221;51.860;-2.188;2023-09-19T09:26:55;7.10;;;2.03;;
74689;SDS011;63221;51.860;-2.188;2023-09-19T09:29:43;9.63;;;2.30;;
74689;SDS011;63221;51.860;-2.188;2023-09-19T09:34:43;6.70;;;1.50;;
74689;SDS011;63221;51.860;-2.188;2023-09-19T09:37:13;6.32;;;1.63;;
74689;SDS011;63221;51.860;-2.188;2023-09-19T09:39:40;7.00;;;2.28;;
74689;SDS011;63221;51.860;-2.188;2023-09-19T09:42:05;7.83;;;1.83;;
74689;SDS011;63221;51.860;-2.188;2023-09-19T09:44:31;8.52;;;2.17;;
74689;SDS011;63221;51.860;-2.188;2023-09-19T09:46:57;6.15;;;1.45;;
74689;SDS011;63221;51.860;-2.188;2023-09-19T09:49:47;4.83;;;1.43;;
74689;SDS011;63221;51.860;-2.188;2023-09-19T09:52:19;6.97;;;1.77;;
74689;SDS011;63221;51.860;-2.188;2023-09-19T09:54:58;9.02;;;2.72;;
74689;SDS011;63221;51.860;-2.188;2023-09-19T09:57:30;6.18;;;2.00;;
74689;SDS011;63221;51.860;-2.188;2023-09-19T09:59:56;6.17;;;1.40;;
74689;SDS011;63221;51.860;-2.188;2023-09-19T10:02:44;7.07;;;1.33;;
74689;SDS011;63221;51.860;-2.188;2023-09-19T10:05:18;6.63;;;1.45;;
74689;SDS011;63221;51.860;-2.188;2023-09-19T10:07:53;6.88;;;1.50;;
74689;SDS011;63221;51.860;-2.188;2023-09-19T10:10:34;4.47;;;1.15;;
74689;SDS011;63221;51.860;-2.188;2023-09-19T10:13:07;8.33;;;1.97;;
74689;SDS011;63221;51.860;-2.188;2023-09-19T10:15:43;8.38;;;1.58;;
74689;SDS011;63221;51.860;-2.188;2023-09-19T10:18:16;9.60;;;1.88;;
74689;SDS011;63221;51.860;-2.188;2023-09-19T10:20:45;6.05;;;1.30;;
74689;SDS011;63221;51.860;-2.188;2023-09-19T10:23:12;5.35;;;1.65;;
74689;SDS011;63221;51.860;-2.188;2023-09-19T10:25:39;3.43;;;1.53;;
74689;SDS011;63221;51.860;-2.188;2023-09-19T10:28:06;8.05;;;2.40;;
74689;SDS011;63221;51.860;-2.188;2023-09-19T10:30:45;4.75;;;1.48;;
74689;SDS011;63221;51.860;-2.188;2023-09-19T10:33:34;8.05;;;1.10;;
74689;SDS011;63221;51.860;-2.188;2023-09-19T10:36:00;3.22;;;1.23;;
74689;SDS011;63221;51.860;-2.188;2023-09-19T10:38:29;5.27;;;1.33;;
74689;SDS011;63221;51.860;-2.188;2023-09-19T10:40:55;2.83;;;1.27;;
74689;SDS011;63221;51.860;-2.188;2023-09-19T10:43:34;5.00;;;0.73;;
74689;SDS011;63221;51.860;-2.188;2023-09-19T10:46:01;6.57;;;1.53;;
74689;SDS011;63221;51.860;-2.188;2023-09-19T10:48:30;6.40;;;1.20;;
74689;SDS011;63221;51.860;-2.188;2023-09-19T10:50:59;3.53;;;1.20;;
74689;SDS011;63221;51.860;-2.188;2023-09-19T10:53:41;3.88;;;1.08;;
74689;SDS011;63221;51.860;-2.188;2023-09-19T10:56:16;5.35;;;1.10;;
74689;SDS011;63221;51.860;-2.188;2023-09-19T10:58:45;4.60;;;0.77;;
74689;SDS011;63221;51.860;-2.188;2023-09-19T11:01:11;3.33;;;0.75;;
74689;SDS011;63221;51.860;-2.188;2023-09-19T11:03:43;1.50;;;0.43;;
74689;SDS011;63221;51.860;-2.188;2023-09-19T11:06:12;3.25;;;0.65;;
74689;SDS011;63221;51.860;-2.188;2023-09-19T11:14:13;2.30;;;1.47;;
74689;SDS011;63221;51.860;-2.188;2023-09-19T11:16:39;2.35;;;0.73;;
74689;SDS011;63221;51.860;-2.188;2023-09-19T11:19:04;2.50;;;1.07;;
74689;SDS011;63221;51.860;-2.188;2023-09-19T11:26:47;2.63;;;0.90;;
74689;SDS011;63221;51.860;-2.188;2023-09-19T11:29:25;1.85;;;0.77;;
74689;SDS011;63221;51.860;-2.188;2023-09-19T11:31:58;1.57;;;0.30;;
74689;SDS011;63221;51.860;-2.188;2023-09-19T11:39:39;1.58;;;0.82;;
74689;SDS011;63221;51.860;-2.188;2023-09-19T11:48:22;1.30;;;1.00;;
74689;SDS011;63221;51.860;-2.188;2023-09-19T11:50:52;1.98;;;0.70;;
74689;SDS011;63221;51.860;-2.188;2023-09-19T11:53:17;2.07;;;0.77;;
74689;SDS011;63221;51.860;-2.188;2023-09-19T11:55:45;3.63;;;0.65;;
74689;SDS011;63221;51.860;-2.188;2023-09-19T11:58:11;1.67;;;0.93;;
74689;SDS011;63221;51.860;-2.188;2023-09-19T12:00:39;2.30;;;0.60;;
74689;SDS011;63221;51.860;-2.188;2023-09-19T12:03:09;2.80;;;0.85;;
74689;SDS011;63221;51.860;-2.188;2023-09-19T12:05:36;2.70;;;0.73;;
74689;SDS011;63221;51.860;-2.188;2023-09-19T12:08:02;2.22;;;0.90;;
74689;SDS011;63221;51.860;-2.188;2023-09-19T12:10:32;3.00;;;1.08;;
74689;SDS011;63221;51.860;-2.188;2023-09-19T12:12:58;3.10;;;0.93;;
74689;SDS011;63221;51.860;-2.188;2023-09-19T12:15:27;3.00;;;1.10;;
74689;SDS011;63221;51.860;-2.188;2023-09-19T12:17:59;3.80;;;1.27;;
74689;SDS011;63221;51.860;-2.188;2023-09-19T12:20:24;6.93;;;1.67;;
74689;SDS011;63221;51.860;-2.188;2023-09-19T12:22:50;5.33;;;1.30;;
74689;SDS011;63221;51.860;-2.188;2023-09-19T12:25:15;4.40;;;1.40;;
74689;SDS011;63221;51.860;-2.188;2023-09-19T12:27:45;5.07;;;1.55;;
74689;SDS011;63221;51.860;-2.188;2023-09-19T12:30:18;8.70;;;1.67;;
74689;SDS011;63221;51.860;-2.188;2023-09-19T12:32:46;8.27;;;2.00;;
74689;SDS011;63221;51.860;-2.188;2023-09-19T12:35:32;9.60;;;2.43;;
74689;SDS011;63221;51.860;-2.188;2023-09-19T12:38:01;8.27;;;2.75;;
74689;SDS011;63221;51.860;-2.188;2023-09-19T12:40:28;5.32;;;1.83;;
74689;SDS011;63221;51.860;-2.188;2023-09-19T12:42:58;9.23;;;2.20;;
74689;SDS011;63221;51.860;-2.188;2023-09-19T12:45:24;12.23;;;2.25;;
74689;SDS011;63221;51.860;-2.188;2023-09-19T12:51:08;7.35;;;1.52;;
74689;SDS011;63221;51.860;-2.188;2023-09-19T12:53:37;7.25;;;2.10;;
74689;SDS011;63221;51.860;-2.188;2023-09-19T12:56:16;8.90;;;1.80;;
74689;SDS011;63221;51.860;-2.188;2023-09-19T12:58:52;7.22;;;2.00;;
74689;SDS011;63221;51.860;-2.188;2023-09-19T13:01:23;7.85;;;2.65;;
74689;SDS011;63221;51.860;-2.188;2023-09-19T13:04:11;6.68;;;1.70;;
74689;SDS011;63221;51.860;-2.188;2023-09-19T13:06:59;7.10;;;1.98;;
74689;SDS011;63221;51.860;-2.188;2023-09-19T13:09:26;5.20;;;1.37;;
74689;SDS011;63221;51.860;-2.188;2023-09-19T13:12:03;13.20;;;2.72;;
74689;SDS011;63221;51.860;-2.188;2023-09-19T13:14:30;5.45;;;1.73;;
74689;SDS011;63221;51.860;-2.188;2023-09-19T13:19:41;9.20;;;1.77;;
74689;SDS011;63221;51.860;-2.188;2023-09-19T13:25:14;6.80;;;1.65;;
74689;SDS011;63221;51.860;-2.188;2023-09-19T13:28:01;5.35;;;1.23;;
74689;SDS011;63221;51.860;-2.188;2023-09-19T13:30:29;10.13;;;2.45;;
74689;SDS011;63221;51.860;-2.188;2023-09-19T13:33:06;4.65;;;1.42;;
74689;SDS011;63221;51.860;-2.188;2023-09-19T13:35:33;5.53;;;1.30;;
74689;SDS011;63221;51.860;-2.188;2023-09-19T13:37:58;6.40;;;1.45;;
74689;SDS011;63221;51.860;-2.188;2023-09-19T13:40:24;10.27;;;1.67;;
74689;SDS011;63221;51.860;-2.188;2023-09-19T13:42:55;9.70;;;2.88;;
74689;SDS011;63221;51.860;-2.188;2023-09-19T13:45:21;9.38;;;2.10;;
74689;SDS011;63221;51.860;-2.188;2023-09-19T13:47:49;9.57;;;1.93;;
74689;SDS011;63221;51.860;-2.188;2023-09-19T13:50:15;5.00;;;2.00;;
74689;SDS011;63221;51.860;-2.188;2023-09-19T13:52:41;10.85;;;2.20;;
74689;SDS011;63221;51.860;-2.188;2023-09-19T13:55:07;8.23;;;1.77;;
74689;SDS011;63221;51.860;-2.188;2023-09-19T13:57:33;10.00;;;2.88;;
74689;SDS011;63221;51.860;-2.188;2023-09-19T13:59:58;8.70;;;2.13;;
74689;SDS011;63221;51.860;-2.188;2023-09-19T14:02:24;7.17;;;1.77;;
74689;SDS011;63221;51.860;-2.188;2023-09-19T14:04:50;8.55;;;2.40;;
74689;SDS011;63221;51.860;-2.188;2023-09-19T14:07:16;6.93;;;1.07;;
74689;SDS011;63221;51.860;-2.188;2023-09-19T14:09:42;8.32;;;1.80;;
74689;SDS011;63221;51.860;-2.188;2023-09-19T14:12:08;6.25;;;1.75;;
74689;SDS011;63221;51.860;-2.188;2023-09-19T14:14:34;10.27;;;2.27;;
74689;SDS011;63221;51.860;-2.188;2023-09-19T14:16:59;7.50;;;1.88;;
74689;SDS011;63221;51.860;-2.188;2023-09-19T14:19:26;7.43;;;1.60;;
74689;SDS011;63221;51.860;-2.188;2023-09-19T14:21:52;12.45;;;2.50;;
74689;SDS011;63221;51.860;-2.188;2023-09-19T14:24:20;10.10;;;1.70;;
74689;SDS011;63221;51.860;-2.188;2023-09-19T14:26:46;10.43;;;1.88;;
74689;SDS011;63221;51.860;-2.188;2023-09-19T14:29:11;5.73;;;1.67;;
74689;SDS011;63221;51.860;-2.188;2023-09-19T14:31:38;7.07;;;1.90;;
74689;SDS011;63221;51.860;-2.188;2023-09-19T14:34:06;10.80;;;2.53;;
74689;SDS011;63221;51.860;-2.188;2023-09-19T14:36:32;8.40;;;1.80;;
74689;SDS011;63221;51.860;-2.188;2023-09-19T14:38:58;7.10;;;1.55;;
74689;SDS011;63221;51.860;-2.188;2023-09-19T14:41:24;10.13;;;1.80;;
74689;SDS011;63221;51.860;-2.188;2023-09-19T14:43:54;7.72;;;1.88;;
74689;SDS011;63221;51.860;-2.188;2023-09-19T14:46:20;8.43;;;1.85;;
74689;SDS011;63221;51.860;-2.188;2023-09-19T14:48:46;14.13;;;2.10;;
74689;SDS011;63221;51.860;-2.188;2023-09-19T14:51:12;7.27;;;2.40;;
74689;SDS011;63221;51.860;-2.188;2023-09-19T14:53:38;7.85;;;2.08;;
74689;SDS011;63221;51.860;-2.188;2023-09-19T14:56:07;9.82;;;1.95;;
74689;SDS011;63221;51.860;-2.188;2023-09-19T14:58:34;8.68;;;2.28;;
74689;SDS011;63221;51.860;-2.188;2023-09-19T15:01:06;14.53;;;3.83;;
74689;SDS011;63221;51.860;-2.188;2023-09-19T15:03:32;7.35;;;2.38;;
74689;SDS011;63221;51.860;-2.188;2023-09-19T15:06:02;6.47;;;1.35;;
74689;SDS011;63221;51.860;-2.188;2023-09-19T15:08:29;4.63;;;1.00;;
74689;SDS011;63221;51.860;-2.188;2023-09-19T15:10:59;4.40;;;1.13;;
74689;SDS011;63221;51.860;-2.188;2023-09-19T15:13:29;5.00;;;2.08;;
74689;SDS011;63221;51.860;-2.188;2023-09-19T15:16:05;3.67;;;1.23;;
74689;SDS011;63221;51.860;-2.188;2023-09-19T15:18:33;4.88;;;0.73;;
74689;SDS011;63221;51.860;-2.188;2023-09-19T15:21:01;3.83;;;0.70;;
74689;SDS011;63221;51.860;-2.188;2023-09-19T15:23:26;6.07;;;1.20;;
74689;SDS011;63221;51.860;-2.188;2023-09-19T15:25:51;6.23;;;0.80;;
74689;SDS011;63221;51.860;-2.188;2023-09-19T15:28:18;2.22;;;0.65;;
74689;SDS011;63221;51.860;-2.188;2023-09-19T15:30:44;5.83;;;1.13;;
74689;SDS011;63221;51.860;-2.188;2023-09-19T15:33:09;4.77;;;0.93;;
74689;SDS011;63221;51.860;-2.188;2023-09-19T15:35:34;6.18;;;1.02;;
74689;SDS011;63221;51.860;-2.188;2023-09-19T15:38:02;5.72;;;0.95;;
74689;SDS011;63221;51.860;-2.188;2023-09-19T15:40:27;9.97;;;1.50;;